This is the latest recevied weather packets stored in our database for station/object OE-11344. If no packets are shown the sender has not sent any weather packets the latest 10 day(s).
| Time | Temp. | Humidity | Pressure | Rain* | Wind** | Luminosity | Snow |
|---|---|---|---|---|---|---|---|
| 1787718912 | 10° C | 88% | 853.6 hPa | 0 mm | - | 0 W/m² | - |
| 1787718311 | 9.44° C | 92% | 853.6 hPa | 0 mm | - | 0 W/m² | - |
| 1787717484 | 9.44° C | 92% | 853.5 hPa | 0 mm | - | 0 W/m² | - |
| 1787717112 | 9.44° C | 92% | 853.5 hPa | 0 mm | - | 0 W/m² | - |
| 1787716511 | 10° C | 90% | 853.6 hPa | 0 mm | - | 0 W/m² | - |
| 1787715912 | 10° C | 90% | 853.6 hPa | 0 mm | - | 0 W/m² | - |
| 1787715311 | 9.44° C | 93% | 853.6 hPa | 0 mm | - | 0 W/m² | - |
| 1787714712 | 9.44° C | 94% | 853.6 hPa | 0 mm | - | 0 W/m² | - |
| 1787713884 | 9.44° C | 92% | 853.5 hPa | 0 mm | - | 0 W/m² | - |
| 1787713512 | 10.56° C | 80% | 853.5 hPa | 0 mm | - | 0 W/m² | - |
| 1787712912 | 10° C | 88% | 853.6 hPa | 0 mm | - | 0 W/m² | - |
| 1787712084 | 9.44° C | 95% | 853.6 hPa | 0 mm | - | 0 W/m² | - |
| 1787711711 | 9.44° C | 95% | 853.5 hPa | 0 mm | - | 0 W/m² | - |
| 1787711112 | 9.44° C | 94% | 853.5 hPa | 0 mm | - | 0 W/m² | - |
| 1787710285 | 9.44° C | 90% | 853.4 hPa | 0 mm | - | 0 W/m² | - |
| 1787709912 | 9.44° C | 94% | 853.6 hPa | 0 mm | - | 0 W/m² | - |
| 1787709312 | 9.44° C | 96% | 853.6 hPa | 0 mm | - | 0 W/m² | - |
| 1787708484 | 9.44° C | 95% | 853.5 hPa | 0 mm | - | 0 W/m² | - |
| 1787708112 | 9.44° C | 95% | 853.3 hPa | 0 mm | - | 0 W/m² | - |
| 1787707512 | 9.44° C | 95% | 853.3 hPa | 0 mm | - | 0 W/m² | - |
| 1787706684 | 8.89° C | 96% | 853.3 hPa | 0 mm | - | 0 W/m² | - |
| 1787706312 | 9.44° C | 95% | 853.3 hPa | 0 mm | - | 0 W/m² | - |
| 1787705712 | 9.44° C | 96% | 853.3 hPa | 0 mm | - | 0 W/m² | - |
| 1787704885 | 9.44° C | 96% | 853.3 hPa | 0 mm | - | 0 W/m² | - |
| 1787704512 | 9.44° C | 95% | 853.3 hPa | 0 mm | - | 0 W/m² | - |
* Rain latest hour (hover to see other rain measurements)
** Current wind speed in m/s (hover to see current wind gust speed)